Flight Track Log - Related Links

Times and Time Zones

All times are in EDT time to prevent confusion due to time zone crossing. See the ASQ6151 flight status page for this flight to view local times or setup timezone preferences in your user account.

Time Position Orientation Groundspeed Altitude Reporting Facility
EDT Latitude Longitude Course Direction KTS MPH feet Rate Location/Type
Sun 02:07:30 PM 41.9333 -87.9000 169° South 181 208 2,200  Level Chicago TRACON
Sun 02:08:24 PM 41.8833 -87.8667 154° Southeast 215 247 3,700 1,646 Climbing Chicago TRACON
Sun 02:09:23 PM 41.8217 -87.8311 157° South 236 272 5,300 1,736 Climbing Chicago Center
Sun 02:10:25 PM 41.7542 -87.7867 154° Southeast 263 303 7,200 1,935 Climbing Chicago Center
Sun 02:11:27 PM 41.6831 -87.7400 154° Southeast 279 321 9,300 1,742 Climbing Chicago Center
Sun 02:12:00 PM 41.5605 -87.2614 169° South  Level Estimated
Sun 02:12:29 PM 41.6103 -87.6925 154° Southeast 287 330 10,800  Level Chicago Center
Sun 02:13:31 PM 41.5333 -87.6422 154° Southeast 302 348 12,300 1,016 Climbing Chicago Center
Sun 02:14:33 PM 41.4506 -87.5883 154° Southeast 320 368 12,900 532 Climbing Chicago Center
Sun 02:15:35 PM 41.3508 -87.5603 168° South 362 417 13,400 532 Climbing Chicago Center
Sun 02:16:37 PM 41.2242 -87.5383 173° South 382 440 14,000 532 Climbing Chicago Center
Sun 02:17:39 PM 41.1175 -87.5117 169° South 388 447 14,500 576 Climbing Chicago Center
Sun 02:18:42 PM 41.0083 -87.4822 168° South 398 458 15,200 672 Climbing Chicago Center
Sun 02:19:44 PM 40.9011 -87.4533 168° South 396 456 15,900 677 Climbing Chicago Center
Sun 02:20:46 PM 40.7922 -87.4250 169° South 399 459 16,600 629 Climbing Chicago Center
Sun 02:21:48 PM 40.6836 -87.3956 168° South 399 459 17,200 581 Climbing Chicago Center
Sun 02:22:50 PM 40.5533 -87.3625 169° South 399 459 17,800 629 Climbing Chicago Center
Sun 02:23:52 PM 40.4439 -87.3253 165° South 400 460 18,500 677 Climbing Chicago Center
Sun 02:24:54 PM 40.3506 -87.2411 145° Southeast 409 471 19,200 677 Climbing Chicago Center
Sun 02:25:56 PM 40.2594 -87.1506 143° Southeast 412 474 19,900 677 Climbing Chicago Center
Sun 02:26:58 PM 40.1858 -87.0344 130° Southeast 417 480 20,600 677 Climbing Chicago Center
Sun 02:28:00 PM 40.1119 -86.9167 129° Southeast 419 482 21,300 750 Climbing Chicago Center
Sun 02:28:50 PM 40.0361 -86.7964 129° Southeast 423 487 22,000 750 Climbing Indianapolis Center
Sun 02:29:52 PM 39.9617 -86.6792 130° Southeast 420 483 22,700 677 Climbing Indianapolis Center
Sun 02:30:54 PM 39.8867 -86.5622 130° Southeast 422 486 23,400 677 Climbing Indianapolis Center
Sun 02:31:56 PM 39.8133 -86.4464 129° Southeast 419 482 24,100 677 Climbing Indianapolis Center
Sun 02:32:58 PM 39.7244 -86.3264 134° Southeast 426 490 24,800 677 Climbing Indianapolis Center
Sun 02:34:00 PM 39.6322 -86.2269 140° Southeast 420 483 25,500 677 Climbing Indianapolis Center
Sun 02:35:02 PM 39.5439 -86.1317 140° Southeast 417 480 26,200 677 Climbing Indianapolis Center
Sun 02:36:04 PM 39.4553 -86.0372 141° Southeast 416 479 26,900 677 Climbing Indianapolis Center
Sun 02:37:06 PM 39.3644 -85.9439 142° Southeast 417 480 27,600 726 Climbing Indianapolis Center
Sun 02:38:08 PM 39.2567 -85.8303 141° Southeast 418 481 28,400 726 Climbing Indianapolis Center
Sun 02:39:10 PM 39.1658 -85.7392 142° Southeast 416 479 29,100 677 Climbing Indianapolis Center
Sun 02:40:12 PM 39.0775 -85.6403 139° Southeast 421 484 29,800 677 Climbing Indianapolis Center
Sun 02:41:14 PM 39.0086 -85.5208 127° Southeast 418 481 30,500 677 Climbing Indianapolis Center
Sun 02:42:16 PM 38.9367 -85.4033 128° Southeast 419 482 31,200 774 Climbing Indianapolis Center
Sun 02:43:18 PM 38.8503 -85.2600 128° Southeast 423 487 32,100 774 Climbing Indianapolis Center
Sun 02:44:20 PM 38.7783 -85.1419 128° Southeast 422 486 32,800 674 Climbing Indianapolis Center
Sun 02:46:25 PM 38.6300 -84.8978 128° Southeast 424 488 34,200 674 Climbing Indianapolis Center
Sun 02:47:27 PM 38.5569 -84.7783 128° Southeast 427 491 34,900 387 Climbing Indianapolis Center
Sun 02:48:29 PM 38.4814 -84.6569 128° Southeast 433 498 35,000 48 Climbing Indianapolis Center
Sun 02:49:31 PM 38.3947 -84.5175 128° Southeast 431 496 35,000  Level Indianapolis Center
Sun 02:50:33 PM 38.3208 -84.3981 128° Southeast 428 493 35,000 -194 Level Indianapolis Center
Sun 02:51:35 PM 38.2456 -84.2769 128° Southeast 433 498 34,600 -629 Descending Indianapolis Center
Sun 02:52:37 PM 38.1692 -84.1533 128° Southeast 440 506 33,700 -774 Descending Indianapolis Center
Sun 02:53:39 PM 38.0917 -84.0306 129° Southeast 444 511 33,000 -339 Descending Indianapolis Center
Sun 02:54:41 PM 38.0150 -83.9092 129° Southeast 441 507 33,000  Level Indianapolis Center
Sun 02:55:43 PM 37.9236 -83.7658 129° Southeast 446 513 33,000  Level Indianapolis Center
Sun 02:56:45 PM 37.8456 -83.6433 129° Southeast 446 513 33,000  Level Indianapolis Center
Sun 02:57:47 PM 37.7692 -83.5231 129° Southeast 439 505 33,000  Level Indianapolis Center
Sun 02:58:49 PM 37.6928 -83.4025 129° Southeast 439 505 33,000  Level Indianapolis Center
Sun 02:59:51 PM 37.6144 -83.2817 129° Southeast 442 509 33,000  Level Indianapolis Center
Sun 03:00:53 PM 37.5356 -83.1600 129° Southeast 445 512 33,000 -435 Level Indianapolis Center
Sun 03:01:55 PM 37.4458 -83.0200 129° Southeast 440 506 32,100 -968 Descending Indianapolis Center
Sun 03:02:57 PM 37.3656 -82.8981 130° Southeast 447 514 31,000 -1,016 Descending Indianapolis Center
Sun 03:03:59 PM 37.2831 -82.7722 129° Southeast 457 526 30,000 -1,016 Descending Indianapolis Center
Sun 03:05:01 PM 37.1994 -82.6444 129° Southeast 466 536 28,900 -1,065 Descending Indianapolis Center
Sun 03:06:03 PM 37.1158 -82.5175 130° Southeast 468 539 27,800 -1,258 Descending Indianapolis Center
Sun 03:07:05 PM 37.0331 -82.3917 129° Southeast 464 534 26,300 -1,632 Descending Indianapolis Center
Sun 03:08:08 PM 36.9467 -82.2628 130° Southeast 476 548 24,400 -1,440 Descending Indianapolis Center
Sun 03:09:10 PM 36.8489 -82.1153 130° Southeast 472 543 23,300 -1,161 Descending Indianapolis Center
Sun 03:10:12 PM 36.7700 -81.9908 128° Southeast 460 529 22,000 -1,113 Descending Indianapolis Center
Sun 03:11:14 PM 36.6956 -81.8669 127° Southeast 449 517 21,000 -484 Descending Indianapolis Center
Sun 03:12:16 PM 36.6211 -81.7469 128° Southeast 441 507 21,000  Level Indianapolis Center
Sun 03:13:18 PM 36.5564 -81.6175 122° Southeast 438 504 21,000 -194 Level Indianapolis Center
Sun 03:14:20 PM 36.4897 -81.4675 119° Southeast 439 505 20,600 -711 Descending Indianapolis Center
Sun 03:15:33 PM 36.4244 -81.3192 119° Southeast 432 497 19,400 -1,173 Descending Atlanta Center
Sun 03:16:33 PM 36.3653 -81.1950 121° Southeast 427 491 18,000 -1,550 Descending Atlanta Center
Sun 03:17:33 PM 36.3036 -81.0528 118° Southeast 422 486 16,300 -2,150 Descending Atlanta Center
Sun 03:18:33 PM 36.2486 -80.9417 122° Southeast 397 457 13,700 -1,950 Descending Atlanta Center
Sun 03:19:33 PM 36.1978 -80.8278 119° Southeast 391 450 12,400 -1,250 Descending Atlanta Center
Sun 03:20:33 PM 36.1444 -80.7117 120° Southeast 384 442 11,200 -700 Descending Atlanta Center
Sun 03:21:33 PM 36.1253 -80.6122 103° East 374 430 11,000 -100 Descending Atlanta Center
Sun 03:22:33 PM 36.1067 -80.4742 99° East 368 423 11,000 -250 Level Atlanta Center
Sun 03:23:33 PM 36.0889 -80.3722 102° East 341 392 10,500 -900 Descending Atlanta Center
Sun 03:24:33 PM 36.0717 -80.2778 103° East 302 348 9,200 -1,350 Descending Atlanta Center
Sun 03:25:33 PM 36.0542 -80.1889 104° East 280 322 7,800 -1,450 Descending Atlanta Center
Sun 03:26:33 PM 36.0325 -80.0947 106° East 259 298 6,300 -2,150 Descending Atlanta Center
Sun 03:27:33 PM 36.0114 -80.0214 110° East 247 284 3,500 -1,900 Descending Atlanta Center
Sun 03:28:33 PM 36.0517 -79.9833 37° Northeast 173 199 2,500 -1,100 Descending Atlanta Center
Sun 03:29:33 PM 36.0803 -79.9589 35° Northeast 147 169 1,300 -1,200 Descending Atlanta Center

Login

Don't have an account? Register now (free) for customized features, flight alerts, and more!